sensor_id;sensor_type;location;lat;lon;timestamp;P1;durP1;ratioP1;P2;durP2;ratioP2
11086;SDS011;5597;47.588;9.642;2023-05-07T00:00:37;2.53;;;1.73;;
11086;SDS011;5597;47.588;9.642;2023-05-07T00:03:02;2.37;;;1.87;;
11086;SDS011;5597;47.588;9.642;2023-05-07T00:05:28;1.73;;;1.63;;
11086;SDS011;5597;47.588;9.642;2023-05-07T00:07:54;3.00;;;1.80;;
11086;SDS011;5597;47.588;9.642;2023-05-07T00:10:20;2.10;;;1.90;;
11086;SDS011;5597;47.588;9.642;2023-05-07T00:12:45;2.77;;;1.93;;
11086;SDS011;5597;47.588;9.642;2023-05-07T00:15:11;1.97;;;1.60;;
11086;SDS011;5597;47.588;9.642;2023-05-07T00:17:45;2.43;;;1.50;;
11086;SDS011;5597;47.588;9.642;2023-05-07T00:20:17;2.47;;;1.60;;
11086;SDS011;5597;47.588;9.642;2023-05-07T00:23:05;1.90;;;1.70;;
11086;SDS011;5597;47.588;9.642;2023-05-07T00:25:31;2.13;;;1.70;;
11086;SDS011;5597;47.588;9.642;2023-05-07T00:27:56;1.67;;;1.50;;
11086;SDS011;5597;47.588;9.642;2023-05-07T00:30:27;2.27;;;1.60;;
11086;SDS011;5597;47.588;9.642;2023-05-07T00:32:53;2.07;;;1.73;;
11086;SDS011;5597;47.588;9.642;2023-05-07T00:35:19;1.50;;;1.40;;
11086;SDS011;5597;47.588;9.642;2023-05-07T00:37:44;1.90;;;1.70;;
11086;SDS011;5597;47.588;9.642;2023-05-07T00:40:10;2.50;;;1.70;;
11086;SDS011;5597;47.588;9.642;2023-05-07T00:42:36;2.13;;;1.43;;
11086;SDS011;5597;47.588;9.642;2023-05-07T00:45:02;1.33;;;1.23;;
11086;SDS011;5597;47.588;9.642;2023-05-07T00:47:28;1.70;;;1.60;;
11086;SDS011;5597;47.588;9.642;2023-05-07T00:49:53;2.03;;;1.57;;
11086;SDS011;5597;47.588;9.642;2023-05-07T00:52:19;1.60;;;1.50;;
11086;SDS011;5597;47.588;9.642;2023-05-07T00:54:46;2.03;;;1.50;;
11086;SDS011;5597;47.588;9.642;2023-05-07T00:57:12;1.90;;;1.50;;
11086;SDS011;5597;47.588;9.642;2023-05-07T00:59:38;2.07;;;1.50;;
11086;SDS011;5597;47.588;9.642;2023-05-07T01:02:05;1.40;;;1.30;;
11086;SDS011;5597;47.588;9.642;2023-05-07T01:04:31;1.43;;;1.30;;
11086;SDS011;5597;47.588;9.642;2023-05-07T01:06:57;1.93;;;1.37;;
11086;SDS011;5597;47.588;9.642;2023-05-07T01:09:24;1.20;;;1.10;;
11086;SDS011;5597;47.588;9.642;2023-05-07T01:11:50;2.20;;;1.50;;
11086;SDS011;5597;47.588;9.642;2023-05-07T01:14:17;1.93;;;1.47;;
11086;SDS011;5597;47.588;9.642;2023-05-07T01:16:43;2.00;;;1.50;;
11086;SDS011;5597;47.588;9.642;2023-05-07T01:19:09;1.90;;;1.40;;
11086;SDS011;5597;47.588;9.642;2023-05-07T01:21:38;9.03;;;1.50;;
11086;SDS011;5597;47.588;9.642;2023-05-07T01:24:09;3.13;;;1.40;;
11086;SDS011;5597;47.588;9.642;2023-05-07T01:26:36;1.63;;;1.27;;
11086;SDS011;5597;47.588;9.642;2023-05-07T01:29:02;2.20;;;1.77;;
11086;SDS011;5597;47.588;9.642;2023-05-07T01:31:28;1.77;;;1.40;;
11086;SDS011;5597;47.588;9.642;2023-05-07T01:33:54;1.50;;;1.40;;
11086;SDS011;5597;47.588;9.642;2023-05-07T01:36:23;1.63;;;1.30;;
11086;SDS011;5597;47.588;9.642;2023-05-07T01:38:51;1.77;;;1.60;;
11086;SDS011;5597;47.588;9.642;2023-05-07T01:41:17;1.73;;;1.63;;
11086;SDS011;5597;47.588;9.642;2023-05-07T01:43:44;2.33;;;1.60;;
11086;SDS011;5597;47.588;9.642;2023-05-07T01:46:11;2.53;;;1.40;;
11086;SDS011;5597;47.588;9.642;2023-05-07T01:48:37;1.30;;;1.20;;
11086;SDS011;5597;47.588;9.642;2023-05-07T01:51:03;1.83;;;1.50;;
11086;SDS011;5597;47.588;9.642;2023-05-07T01:53:35;1.47;;;1.30;;
11086;SDS011;5597;47.588;9.642;2023-05-07T01:56:01;2.27;;;1.40;;
11086;SDS011;5597;47.588;9.642;2023-05-07T01:58:27;1.87;;;1.50;;
11086;SDS011;5597;47.588;9.642;2023-05-07T02:00:52;1.47;;;1.30;;
11086;SDS011;5597;47.588;9.642;2023-05-07T02:03:18;2.30;;;1.40;;
11086;SDS011;5597;47.588;9.642;2023-05-07T02:05:43;1.57;;;1.47;;
11086;SDS011;5597;47.588;9.642;2023-05-07T02:08:09;1.87;;;1.23;;
11086;SDS011;5597;47.588;9.642;2023-05-07T02:10:34;1.67;;;1.57;;
11086;SDS011;5597;47.588;9.642;2023-05-07T02:13:01;1.43;;;1.33;;
11086;SDS011;5597;47.588;9.642;2023-05-07T02:15:27;2.20;;;1.50;;
11086;SDS011;5597;47.588;9.642;2023-05-07T02:18:02;1.73;;;1.30;;
11086;SDS011;5597;47.588;9.642;2023-05-07T02:20:29;1.63;;;1.53;;
11086;SDS011;5597;47.588;9.642;2023-05-07T02:22:55;1.73;;;1.47;;
11086;SDS011;5597;47.588;9.642;2023-05-07T02:25:21;1.40;;;1.30;;
11086;SDS011;5597;47.588;9.642;2023-05-07T02:27:46;3.00;;;1.60;;
11086;SDS011;5597;47.588;9.642;2023-05-07T02:30:12;1.70;;;1.60;;
11086;SDS011;5597;47.588;9.642;2023-05-07T02:32:39;1.87;;;1.40;;
11086;SDS011;5597;47.588;9.642;2023-05-07T02:35:04;1.63;;;1.40;;
11086;SDS011;5597;47.588;9.642;2023-05-07T02:37:30;1.40;;;1.30;;
11086;SDS011;5597;47.588;9.642;2023-05-07T02:39:56;1.93;;;1.50;;
11086;SDS011;5597;47.588;9.642;2023-05-07T02:42:21;2.20;;;1.70;;
11086;SDS011;5597;47.588;9.642;2023-05-07T02:44:47;1.30;;;1.20;;
11086;SDS011;5597;47.588;9.642;2023-05-07T02:47:13;2.70;;;1.20;;
11086;SDS011;5597;47.588;9.642;2023-05-07T02:49:40;1.50;;;1.40;;
11086;SDS011;5597;47.588;9.642;2023-05-07T02:52:05;1.60;;;1.50;;
11086;SDS011;5597;47.588;9.642;2023-05-07T02:54:31;1.93;;;1.20;;
11086;SDS011;5597;47.588;9.642;2023-05-07T02:56:57;2.03;;;1.20;;
11086;SDS011;5597;47.588;9.642;2023-05-07T02:59:23;1.50;;;1.40;;
11086;SDS011;5597;47.588;9.642;2023-05-07T03:01:48;1.50;;;1.40;;
11086;SDS011;5597;47.588;9.642;2023-05-07T03:04:14;1.43;;;1.33;;
11086;SDS011;5597;47.588;9.642;2023-05-07T03:06:40;1.50;;;1.40;;
11086;SDS011;5597;47.588;9.642;2023-05-07T03:09:06;1.53;;;1.43;;
11086;SDS011;5597;47.588;9.642;2023-05-07T03:11:32;1.40;;;1.30;;
11086;SDS011;5597;47.588;9.642;2023-05-07T03:13:57;2.00;;;1.80;;
11086;SDS011;5597;47.588;9.642;2023-05-07T03:16:23;1.87;;;1.50;;
11086;SDS011;5597;47.588;9.642;2023-05-07T03:18:48;1.63;;;1.53;;
11086;SDS011;5597;47.588;9.642;2023-05-07T03:21:14;1.73;;;1.30;;
11086;SDS011;5597;47.588;9.642;2023-05-07T03:23:39;1.63;;;1.40;;
11086;SDS011;5597;47.588;9.642;2023-05-07T03:26:05;1.50;;;1.40;;
11086;SDS011;5597;47.588;9.642;2023-05-07T03:28:30;1.53;;;1.37;;
11086;SDS011;5597;47.588;9.642;2023-05-07T03:30:56;1.37;;;1.27;;
11086;SDS011;5597;47.588;9.642;2023-05-07T03:33:22;1.63;;;1.30;;
11086;SDS011;5597;47.588;9.642;2023-05-07T03:35:47;1.53;;;1.40;;
11086;SDS011;5597;47.588;9.642;2023-05-07T03:38:13;1.53;;;1.10;;
11086;SDS011;5597;47.588;9.642;2023-05-07T03:40:39;1.53;;;1.10;;
11086;SDS011;5597;47.588;9.642;2023-05-07T03:43:04;1.30;;;1.20;;
11086;SDS011;5597;47.588;9.642;2023-05-07T03:45:30;1.20;;;1.10;;
11086;SDS011;5597;47.588;9.642;2023-05-07T03:47:56;1.40;;;1.30;;
11086;SDS011;5597;47.588;9.642;2023-05-07T03:50:21;1.60;;;1.37;;
11086;SDS011;5597;47.588;9.642;2023-05-07T03:52:47;1.20;;;1.10;;
11086;SDS011;5597;47.588;9.642;2023-05-07T03:55:12;1.27;;;1.10;;
11086;SDS011;5597;47.588;9.642;2023-05-07T03:57:38;1.30;;;1.20;;
11086;SDS011;5597;47.588;9.642;2023-05-07T04:00:06;1.50;;;1.40;;
11086;SDS011;5597;47.588;9.642;2023-05-07T04:02:33;2.03;;;1.30;;
11086;SDS011;5597;47.588;9.642;2023-05-07T04:04:58;1.63;;;1.53;;
11086;SDS011;5597;47.588;9.642;2023-05-07T04:07:24;1.83;;;1.50;;
11086;SDS011;5597;47.588;9.642;2023-05-07T04:09:50;1.50;;;1.30;;
11086;SDS011;5597;47.588;9.642;2023-05-07T04:12:15;1.87;;;1.67;;
11086;SDS011;5597;47.588;9.642;2023-05-07T04:14:41;1.50;;;1.40;;
11086;SDS011;5597;47.588;9.642;2023-05-07T04:17:06;1.53;;;1.43;;
11086;SDS011;5597;47.588;9.642;2023-05-07T04:19:34;1.50;;;1.40;;
11086;SDS011;5597;47.588;9.642;2023-05-07T04:22:00;1.83;;;1.40;;
11086;SDS011;5597;47.588;9.642;2023-05-07T04:24:25;1.50;;;1.40;;
11086;SDS011;5597;47.588;9.642;2023-05-07T04:26:51;1.50;;;1.40;;
11086;SDS011;5597;47.588;9.642;2023-05-07T04:29:17;1.43;;;1.33;;
11086;SDS011;5597;47.588;9.642;2023-05-07T04:31:43;1.87;;;1.43;;
11086;SDS011;5597;47.588;9.642;2023-05-07T04:34:10;1.47;;;1.37;;
11086;SDS011;5597;47.588;9.642;2023-05-07T04:36:36;1.50;;;1.40;;
11086;SDS011;5597;47.588;9.642;2023-05-07T04:39:03;1.60;;;1.50;;
11086;SDS011;5597;47.588;9.642;2023-05-07T04:41:29;1.63;;;1.50;;
11086;SDS011;5597;47.588;9.642;2023-05-07T04:43:54;2.10;;;1.50;;
11086;SDS011;5597;47.588;9.642;2023-05-07T04:46:20;1.50;;;1.37;;
11086;SDS011;5597;47.588;9.642;2023-05-07T04:48:46;1.73;;;1.50;;
11086;SDS011;5597;47.588;9.642;2023-05-07T04:51:11;1.50;;;1.40;;
11086;SDS011;5597;47.588;9.642;2023-05-07T04:53:37;2.17;;;1.73;;
11086;SDS011;5597;47.588;9.642;2023-05-07T04:56:02;2.07;;;1.50;;
11086;SDS011;5597;47.588;9.642;2023-05-07T04:58:28;1.60;;;1.50;;
11086;SDS011;5597;47.588;9.642;2023-05-07T05:00:56;2.67;;;1.60;;
11086;SDS011;5597;47.588;9.642;2023-05-07T05:03:22;1.90;;;1.73;;
11086;SDS011;5597;47.588;9.642;2023-05-07T05:05:51;1.80;;;1.70;;
11086;SDS011;5597;47.588;9.642;2023-05-07T05:08:17;2.07;;;1.73;;
11086;SDS011;5597;47.588;9.642;2023-05-07T05:10:43;1.70;;;1.60;;
11086;SDS011;5597;47.588;9.642;2023-05-07T05:13:09;2.07;;;1.80;;
11086;SDS011;5597;47.588;9.642;2023-05-07T05:15:37;2.10;;;1.90;;
11086;SDS011;5597;47.588;9.642;2023-05-07T05:18:03;2.07;;;1.87;;
11086;SDS011;5597;47.588;9.642;2023-05-07T05:20:29;2.40;;;2.20;;
11086;SDS011;5597;47.588;9.642;2023-05-07T05:22:55;2.40;;;2.20;;
11086;SDS011;5597;47.588;9.642;2023-05-07T05:25:20;2.53;;;2.33;;
11086;SDS011;5597;47.588;9.642;2023-05-07T05:27:46;2.20;;;2.00;;
11086;SDS011;5597;47.588;9.642;2023-05-07T05:30:11;2.87;;;2.20;;
11086;SDS011;5597;47.588;9.642;2023-05-07T05:32:37;2.80;;;2.60;;
11086;SDS011;5597;47.588;9.642;2023-05-07T05:35:03;2.60;;;2.40;;
11086;SDS011;5597;47.588;9.642;2023-05-07T05:37:29;2.60;;;2.40;;
11086;SDS011;5597;47.588;9.642;2023-05-07T05:39:56;2.40;;;2.07;;
11086;SDS011;5597;47.588;9.642;2023-05-07T05:42:22;3.27;;;2.50;;
11086;SDS011;5597;47.588;9.642;2023-05-07T05:44:47;2.27;;;2.07;;
11086;SDS011;5597;47.588;9.642;2023-05-07T05:47:13;2.53;;;2.33;;
11086;SDS011;5597;47.588;9.642;2023-05-07T05:49:39;2.40;;;2.20;;
11086;SDS011;5597;47.588;9.642;2023-05-07T05:52:04;2.03;;;1.90;;
11086;SDS011;5597;47.588;9.642;2023-05-07T05:54:30;2.13;;;1.93;;
11086;SDS011;5597;47.588;9.642;2023-05-07T05:56:55;2.30;;;2.00;;
11086;SDS011;5597;47.588;9.642;2023-05-07T05:59:21;2.67;;;2.33;;
11086;SDS011;5597;47.588;9.642;2023-05-07T06:01:47;2.13;;;1.93;;
11086;SDS011;5597;47.588;9.642;2023-05-07T06:04:13;2.37;;;2.13;;
11086;SDS011;5597;47.588;9.642;2023-05-07T06:06:38;2.00;;;1.90;;
11086;SDS011;5597;47.588;9.642;2023-05-07T06:09:04;2.90;;;2.13;;
11086;SDS011;5597;47.588;9.642;2023-05-07T06:11:29;2.17;;;2.00;;
11086;SDS011;5597;47.588;9.642;2023-05-07T06:13:57;2.80;;;2.20;;
11086;SDS011;5597;47.588;9.642;2023-05-07T06:16:24;2.00;;;1.80;;
11086;SDS011;5597;47.588;9.642;2023-05-07T06:18:50;1.83;;;1.73;;
11086;SDS011;5597;47.588;9.642;2023-05-07T06:21:15;1.90;;;1.70;;
11086;SDS011;5597;47.588;9.642;2023-05-07T06:23:41;2.57;;;1.70;;
11086;SDS011;5597;47.588;9.642;2023-05-07T06:26:06;1.60;;;1.50;;
11086;SDS011;5597;47.588;9.642;2023-05-07T06:28:32;1.90;;;1.80;;
11086;SDS011;5597;47.588;9.642;2023-05-07T06:31:13;2.00;;;1.47;;
11086;SDS011;5597;47.588;9.642;2023-05-07T06:33:45;1.90;;;1.60;;
11086;SDS011;5597;47.588;9.642;2023-05-07T06:36:11;1.97;;;1.63;;
11086;SDS011;5597;47.588;9.642;2023-05-07T06:38:37;2.00;;;1.77;;
11086;SDS011;5597;47.588;9.642;2023-05-07T06:41:02;1.77;;;1.60;;
11086;SDS011;5597;47.588;9.642;2023-05-07T06:43:28;2.37;;;1.43;;
11086;SDS011;5597;47.588;9.642;2023-05-07T06:45:54;2.33;;;1.30;;
11086;SDS011;5597;47.588;9.642;2023-05-07T06:48:19;1.50;;;1.40;;
11086;SDS011;5597;47.588;9.642;2023-05-07T06:50:45;1.50;;;1.40;;
11086;SDS011;5597;47.588;9.642;2023-05-07T06:53:11;2.60;;;1.50;;
11086;SDS011;5597;47.588;9.642;2023-05-07T06:55:36;2.37;;;1.50;;
11086;SDS011;5597;47.588;9.642;2023-05-07T06:58:03;2.57;;;1.43;;
11086;SDS011;5597;47.588;9.642;2023-05-07T07:00:29;1.83;;;1.40;;
11086;SDS011;5597;47.588;9.642;2023-05-07T07:02:55;1.77;;;1.50;;
11086;SDS011;5597;47.588;9.642;2023-05-07T07:05:21;2.50;;;1.40;;
11086;SDS011;5597;47.588;9.642;2023-05-07T07:07:47;2.33;;;1.30;;
11086;SDS011;5597;47.588;9.642;2023-05-07T07:10:21;2.73;;;1.30;;
11086;SDS011;5597;47.588;9.642;2023-05-07T07:12:47;2.57;;;1.43;;
11086;SDS011;5597;47.588;9.642;2023-05-07T07:15:13;2.03;;;1.63;;
11086;SDS011;5597;47.588;9.642;2023-05-07T07:17:39;1.97;;;1.40;;
11086;SDS011;5597;47.588;9.642;2023-05-07T07:20:05;2.27;;;1.40;;
11086;SDS011;5597;47.588;9.642;2023-05-07T07:22:31;1.67;;;1.20;;
11086;SDS011;5597;47.588;9.642;2023-05-07T07:24:57;1.70;;;1.40;;
11086;SDS011;5597;47.588;9.642;2023-05-07T07:27:22;1.53;;;1.43;;
11086;SDS011;5597;47.588;9.642;2023-05-07T07:29:48;2.10;;;1.90;;
11086;SDS011;5597;47.588;9.642;2023-05-07T07:32:13;1.90;;;1.70;;
11086;SDS011;5597;47.588;9.642;2023-05-07T07:34:39;2.50;;;2.30;;
11086;SDS011;5597;47.588;9.642;2023-05-07T07:37:05;3.10;;;2.50;;
11086;SDS011;5597;47.588;9.642;2023-05-07T07:39:31;2.47;;;2.10;;
11086;SDS011;5597;47.588;9.642;2023-05-07T07:41:57;4.47;;;2.30;;
11086;SDS011;5597;47.588;9.642;2023-05-07T07:44:23;3.00;;;2.20;;
11086;SDS011;5597;47.588;9.642;2023-05-07T07:46:50;2.37;;;2.17;;
11086;SDS011;5597;47.588;9.642;2023-05-07T07:49:15;3.47;;;2.50;;
11086;SDS011;5597;47.588;9.642;2023-05-07T07:51:41;2.10;;;1.90;;
11086;SDS011;5597;47.588;9.642;2023-05-07T07:54:07;2.37;;;1.93;;
11086;SDS011;5597;47.588;9.642;2023-05-07T07:56:32;2.00;;;1.80;;
11086;SDS011;5597;47.588;9.642;2023-05-07T07:59:01;3.00;;;2.10;;
11086;SDS011;5597;47.588;9.642;2023-05-07T08:01:28;2.30;;;2.10;;
11086;SDS011;5597;47.588;9.642;2023-05-07T08:03:55;2.33;;;1.80;;
11086;SDS011;5597;47.588;9.642;2023-05-07T08:06:20;2.73;;;1.70;;
11086;SDS011;5597;47.588;9.642;2023-05-07T08:08:46;2.33;;;2.03;;
11086;SDS011;5597;47.588;9.642;2023-05-07T08:11:11;2.60;;;2.20;;
11086;SDS011;5597;47.588;9.642;2023-05-07T08:13:37;2.90;;;2.10;;
11086;SDS011;5597;47.588;9.642;2023-05-07T08:16:03;3.40;;;3.10;;
11086;SDS011;5597;47.588;9.642;2023-05-07T08:18:29;2.67;;;2.47;;
11086;SDS011;5597;47.588;9.642;2023-05-07T08:20:55;2.77;;;2.53;;
11086;SDS011;5597;47.588;9.642;2023-05-07T08:23:21;2.97;;;2.57;;
11086;SDS011;5597;47.588;9.642;2023-05-07T08:25:47;3.23;;;2.20;;
11086;SDS011;5597;47.588;9.642;2023-05-07T08:28:14;2.90;;;2.60;;
11086;SDS011;5597;47.588;9.642;2023-05-07T08:30:40;3.60;;;2.60;;
11086;SDS011;5597;47.588;9.642;2023-05-07T08:33:06;3.37;;;3.07;;
11086;SDS011;5597;47.588;9.642;2023-05-07T08:35:33;3.17;;;2.70;;
11086;SDS011;5597;47.588;9.642;2023-05-07T08:37:58;2.77;;;2.57;;
11086;SDS011;5597;47.588;9.642;2023-05-07T08:40:25;5.00;;;3.10;;
11086;SDS011;5597;47.588;9.642;2023-05-07T08:42:52;3.43;;;3.13;;
11086;SDS011;5597;47.588;9.642;2023-05-07T08:45:18;3.60;;;3.30;;
11086;SDS011;5597;47.588;9.642;2023-05-07T08:47:47;3.13;;;2.73;;
11086;SDS011;5597;47.588;9.642;2023-05-07T08:50:15;3.20;;;2.50;;
11086;SDS011;5597;47.588;9.642;2023-05-07T08:52:41;2.60;;;2.40;;
11086;SDS011;5597;47.588;9.642;2023-05-07T08:55:07;4.20;;;2.33;;
11086;SDS011;5597;47.588;9.642;2023-05-07T08:57:33;2.30;;;2.10;;
11086;SDS011;5597;47.588;9.642;2023-05-07T08:59:59;2.90;;;1.60;;
11086;SDS011;5597;47.588;9.642;2023-05-07T09:02:25;3.80;;;1.60;;
11086;SDS011;5597;47.588;9.642;2023-05-07T09:04:50;4.07;;;2.10;;
11086;SDS011;5597;47.588;9.642;2023-05-07T09:07:17;3.20;;;1.73;;
11086;SDS011;5597;47.588;9.642;2023-05-07T09:09:44;1.43;;;1.33;;
11086;SDS011;5597;47.588;9.642;2023-05-07T09:12:10;1.83;;;1.73;;
11086;SDS011;5597;47.588;9.642;2023-05-07T09:14:35;2.20;;;1.60;;
11086;SDS011;5597;47.588;9.642;2023-05-07T09:17:01;2.10;;;1.90;;
11086;SDS011;5597;47.588;9.642;2023-05-07T09:19:27;2.53;;;2.00;;
11086;SDS011;5597;47.588;9.642;2023-05-07T09:21:59;1.70;;;1.60;;
11086;SDS011;5597;47.588;9.642;2023-05-07T09:24:26;2.97;;;1.80;;
11086;SDS011;5597;47.588;9.642;2023-05-07T09:26:53;1.90;;;1.80;;
11086;SDS011;5597;47.588;9.642;2023-05-07T09:29:20;1.50;;;1.40;;
11086;SDS011;5597;47.588;9.642;2023-05-07T09:31:46;3.00;;;1.93;;
11086;SDS011;5597;47.588;9.642;2023-05-07T09:34:11;2.30;;;1.70;;
11086;SDS011;5597;47.588;9.642;2023-05-07T09:36:37;1.67;;;1.57;;
11086;SDS011;5597;47.588;9.642;2023-05-07T09:39:02;1.70;;;1.50;;
11086;SDS011;5597;47.588;9.642;2023-05-07T09:41:29;2.27;;;1.77;;
11086;SDS011;5597;47.588;9.642;2023-05-07T09:43:57;1.60;;;1.50;;
11086;SDS011;5597;47.588;9.642;2023-05-07T09:46:30;1.90;;;1.70;;
11086;SDS011;5597;47.588;9.642;2023-05-07T09:48:59;2.30;;;2.10;;
11086;SDS011;5597;47.588;9.642;2023-05-07T09:51:45;2.63;;;2.00;;
11086;SDS011;5597;47.588;9.642;2023-05-07T09:54:14;3.17;;;2.10;;
11086;SDS011;5597;47.588;9.642;2023-05-07T09:56:40;2.70;;;2.10;;
11086;SDS011;5597;47.588;9.642;2023-05-07T09:59:07;3.13;;;2.07;;
11086;SDS011;5597;47.588;9.642;2023-05-07T10:01:36;1.93;;;1.70;;
11086;SDS011;5597;47.588;9.642;2023-05-07T10:04:02;2.30;;;1.80;;
11086;SDS011;5597;47.588;9.642;2023-05-07T10:06:29;2.17;;;1.97;;
11086;SDS011;5597;47.588;9.642;2023-05-07T10:08:55;2.23;;;2.03;;
11086;SDS011;5597;47.588;9.642;2023-05-07T10:11:21;1.80;;;1.70;;
11086;SDS011;5597;47.588;9.642;2023-05-07T10:13:47;2.50;;;2.30;;
11086;SDS011;5597;47.588;9.642;2023-05-07T10:16:14;2.03;;;1.60;;
11086;SDS011;5597;47.588;9.642;2023-05-07T10:18:40;2.00;;;1.80;;
11086;SDS011;5597;47.588;9.642;2023-05-07T10:23:45;2.27;;;1.87;;
11086;SDS011;5597;47.588;9.642;2023-05-07T10:26:12;2.80;;;1.80;;
11086;SDS011;5597;47.588;9.642;2023-05-07T10:28:41;3.57;;;2.33;;
11086;SDS011;5597;47.588;9.642;2023-05-07T10:33:44;2.93;;;2.10;;
11086;SDS011;5597;47.588;9.642;2023-05-07T10:36:11;2.20;;;2.00;;
11086;SDS011;5597;47.588;9.642;2023-05-07T10:38:37;2.27;;;2.07;;
11086;SDS011;5597;47.588;9.642;2023-05-07T10:41:05;3.40;;;2.27;;
11086;SDS011;5597;47.588;9.642;2023-05-07T10:43:41;2.80;;;1.97;;
11086;SDS011;5597;47.588;9.642;2023-05-07T10:46:11;2.47;;;1.70;;
11086;SDS011;5597;47.588;9.642;2023-05-07T10:51:28;2.33;;;2.13;;
11086;SDS011;5597;47.588;9.642;2023-05-07T10:56:40;2.43;;;1.70;;
11086;SDS011;5597;47.588;9.642;2023-05-07T11:02:03;1.70;;;1.60;;
11086;SDS011;5597;47.588;9.642;2023-05-07T11:04:31;1.70;;;1.60;;
11086;SDS011;5597;47.588;9.642;2023-05-07T11:17:31;1.60;;;1.50;;
11086;SDS011;5597;47.588;9.642;2023-05-07T11:19:59;1.80;;;1.60;;
11086;SDS011;5597;47.588;9.642;2023-05-07T11:25:01;1.57;;;1.40;;
11086;SDS011;5597;47.588;9.642;2023-05-07T11:27:28;1.87;;;1.50;;
11086;SDS011;5597;47.588;9.642;2023-05-07T11:29:54;1.60;;;1.50;;
11086;SDS011;5597;47.588;9.642;2023-05-07T11:32:23;1.90;;;1.60;;
11086;SDS011;5597;47.588;9.642;2023-05-07T11:34:53;1.63;;;1.40;;
11086;SDS011;5597;47.588;9.642;2023-05-07T11:37:20;1.73;;;1.60;;
11086;SDS011;5597;47.588;9.642;2023-05-07T11:39:47;1.40;;;1.30;;
11086;SDS011;5597;47.588;9.642;2023-05-07T11:42:25;1.70;;;1.60;;
11086;SDS011;5597;47.588;9.642;2023-05-07T11:44:54;2.40;;;1.70;;
11086;SDS011;5597;47.588;9.642;2023-05-07T11:47:20;1.63;;;1.53;;
11086;SDS011;5597;47.588;9.642;2023-05-07T11:49:47;2.00;;;1.80;;
11086;SDS011;5597;47.588;9.642;2023-05-07T11:52:18;1.40;;;1.30;;
11086;SDS011;5597;47.588;9.642;2023-05-07T11:54:48;1.93;;;1.60;;
11086;SDS011;5597;47.588;9.642;2023-05-07T11:57:18;1.47;;;1.37;;
11086;SDS011;5597;47.588;9.642;2023-05-07T11:59:44;2.03;;;1.60;;
11086;SDS011;5597;47.588;9.642;2023-05-07T12:02:09;1.80;;;1.60;;
11086;SDS011;5597;47.588;9.642;2023-05-07T12:04:35;1.60;;;1.50;;
11086;SDS011;5597;47.588;9.642;2023-05-07T12:07:03;2.07;;;1.60;;
11086;SDS011;5597;47.588;9.642;2023-05-07T12:09:28;1.50;;;1.40;;
11086;SDS011;5597;47.588;9.642;2023-05-07T12:11:54;1.93;;;1.40;;
11086;SDS011;5597;47.588;9.642;2023-05-07T12:14:21;1.90;;;1.50;;
11086;SDS011;5597;47.588;9.642;2023-05-07T12:16:46;3.23;;;1.60;;
11086;SDS011;5597;47.588;9.642;2023-05-07T12:19:13;2.17;;;1.70;;
11086;SDS011;5597;47.588;9.642;2023-05-07T12:21:39;2.50;;;1.60;;
11086;SDS011;5597;47.588;9.642;2023-05-07T12:24:05;2.03;;;1.80;;
11086;SDS011;5597;47.588;9.642;2023-05-07T12:26:31;1.93;;;1.70;;
11086;SDS011;5597;47.588;9.642;2023-05-07T12:28:57;1.93;;;1.50;;
11086;SDS011;5597;47.588;9.642;2023-05-07T12:31:22;2.17;;;1.70;;
11086;SDS011;5597;47.588;9.642;2023-05-07T12:33:50;3.60;;;1.80;;
11086;SDS011;5597;47.588;9.642;2023-05-07T12:36:16;2.30;;;1.90;;
11086;SDS011;5597;47.588;9.642;2023-05-07T12:38:42;2.10;;;1.77;;
11086;SDS011;5597;47.588;9.642;2023-05-07T12:41:08;2.00;;;1.80;;
11086;SDS011;5597;47.588;9.642;2023-05-07T12:43:35;2.00;;;1.80;;
11086;SDS011;5597;47.588;9.642;2023-05-07T12:46:03;1.73;;;1.60;;
11086;SDS011;5597;47.588;9.642;2023-05-07T12:48:30;1.70;;;1.60;;
11086;SDS011;5597;47.588;9.642;2023-05-07T12:50:56;1.70;;;1.47;;
11086;SDS011;5597;47.588;9.642;2023-05-07T12:53:25;2.33;;;1.60;;
11086;SDS011;5597;47.588;9.642;2023-05-07T12:55:53;1.93;;;1.70;;
11086;SDS011;5597;47.588;9.642;2023-05-07T12:58:25;1.60;;;1.50;;
11086;SDS011;5597;47.588;9.642;2023-05-07T13:00:55;1.70;;;1.60;;
11086;SDS011;5597;47.588;9.642;2023-05-07T13:03:29;2.07;;;1.70;;
11086;SDS011;5597;47.588;9.642;2023-05-07T13:05:56;3.00;;;1.77;;
11086;SDS011;5597;47.588;9.642;2023-05-07T13:08:27;2.87;;;2.00;;
11086;SDS011;5597;47.588;9.642;2023-05-07T13:11:02;1.83;;;1.63;;
11086;SDS011;5597;47.588;9.642;2023-05-07T13:13:30;2.77;;;1.60;;
11086;SDS011;5597;47.588;9.642;2023-05-07T13:15:56;1.90;;;1.70;;
11086;SDS011;5597;47.588;9.642;2023-05-07T13:18:22;2.40;;;1.80;;
11086;SDS011;5597;47.588;9.642;2023-05-07T13:20:49;2.07;;;1.67;;
11086;SDS011;5597;47.588;9.642;2023-05-07T13:23:14;1.50;;;1.40;;
11086;SDS011;5597;47.588;9.642;2023-05-07T13:25:40;1.70;;;1.60;;
11086;SDS011;5597;47.588;9.642;2023-05-07T13:28:06;2.00;;;1.80;;
11086;SDS011;5597;47.588;9.642;2023-05-07T13:30:31;2.13;;;1.60;;
11086;SDS011;5597;47.588;9.642;2023-05-07T13:32:57;3.50;;;1.80;;
11086;SDS011;5597;47.588;9.642;2023-05-07T13:35:22;1.60;;;1.50;;
11086;SDS011;5597;47.588;9.642;2023-05-07T13:37:48;2.27;;;1.63;;
11086;SDS011;5597;47.588;9.642;2023-05-07T13:40:14;1.93;;;1.60;;
11086;SDS011;5597;47.588;9.642;2023-05-07T13:42:40;3.23;;;1.70;;
11086;SDS011;5597;47.588;9.642;2023-05-07T13:45:06;2.67;;;1.33;;
11086;SDS011;5597;47.588;9.642;2023-05-07T13:47:32;2.10;;;1.50;;
11086;SDS011;5597;47.588;9.642;2023-05-07T13:49:58;1.70;;;1.60;;
11086;SDS011;5597;47.588;9.642;2023-05-07T13:52:23;2.53;;;1.47;;
11086;SDS011;5597;47.588;9.642;2023-05-07T13:54:49;1.67;;;1.57;;
11086;SDS011;5597;47.588;9.642;2023-05-07T13:57:16;1.83;;;1.53;;
11086;SDS011;5597;47.588;9.642;2023-05-07T13:59:42;2.03;;;1.60;;
11086;SDS011;5597;47.588;9.642;2023-05-07T14:02:07;1.90;;;1.67;;
11086;SDS011;5597;47.588;9.642;2023-05-07T14:04:34;3.10;;;1.67;;
11086;SDS011;5597;47.588;9.642;2023-05-07T14:06:59;2.00;;;1.67;;
11086;SDS011;5597;47.588;9.642;2023-05-07T14:09:25;2.13;;;1.93;;
11086;SDS011;5597;47.588;9.642;2023-05-07T14:11:51;1.70;;;1.60;;
11086;SDS011;5597;47.588;9.642;2023-05-07T14:14:17;2.07;;;1.80;;
11086;SDS011;5597;47.588;9.642;2023-05-07T14:16:43;2.37;;;1.90;;
11086;SDS011;5597;47.588;9.642;2023-05-07T14:19:09;1.90;;;1.80;;
11086;SDS011;5597;47.588;9.642;2023-05-07T14:21:36;2.40;;;1.83;;
11086;SDS011;5597;47.588;9.642;2023-05-07T14:24:01;2.20;;;1.90;;
11086;SDS011;5597;47.588;9.642;2023-05-07T14:26:27;2.57;;;1.60;;
11086;SDS011;5597;47.588;9.642;2023-05-07T14:28:53;3.97;;;2.03;;
11086;SDS011;5597;47.588;9.642;2023-05-07T14:31:20;3.03;;;2.17;;
11086;SDS011;5597;47.588;9.642;2023-05-07T14:33:46;2.93;;;2.17;;
11086;SDS011;5597;47.588;9.642;2023-05-07T14:36:11;2.03;;;1.93;;
11086;SDS011;5597;47.588;9.642;2023-05-07T14:38:37;2.20;;;2.00;;
11086;SDS011;5597;47.588;9.642;2023-05-07T14:41:03;2.60;;;1.97;;
11086;SDS011;5597;47.588;9.642;2023-05-07T14:43:28;3.40;;;1.97;;
11086;SDS011;5597;47.588;9.642;2023-05-07T14:45:54;2.50;;;1.90;;
11086;SDS011;5597;47.588;9.642;2023-05-07T14:48:19;2.27;;;1.93;;
11086;SDS011;5597;47.588;9.642;2023-05-07T14:50:46;2.77;;;2.13;;
11086;SDS011;5597;47.588;9.642;2023-05-07T14:53:13;2.80;;;2.17;;
11086;SDS011;5597;47.588;9.642;2023-05-07T14:55:38;2.27;;;2.07;;
11086;SDS011;5597;47.588;9.642;2023-05-07T14:58:04;3.57;;;2.13;;
11086;SDS011;5597;47.588;9.642;2023-05-07T15:00:30;3.10;;;2.27;;
11086;SDS011;5597;47.588;9.642;2023-05-07T15:03:00;2.83;;;2.13;;
11086;SDS011;5597;47.588;9.642;2023-05-07T15:05:30;2.93;;;2.10;;
11086;SDS011;5597;47.588;9.642;2023-05-07T15:07:56;3.97;;;2.23;;
11086;SDS011;5597;47.588;9.642;2023-05-07T15:10:22;2.43;;;2.20;;
11086;SDS011;5597;47.588;9.642;2023-05-07T15:12:47;2.53;;;2.00;;
11086;SDS011;5597;47.588;9.642;2023-05-07T15:15:13;2.90;;;2.33;;
11086;SDS011;5597;47.588;9.642;2023-05-07T15:17:38;2.23;;;2.03;;
11086;SDS011;5597;47.588;9.642;2023-05-07T15:20:04;2.73;;;2.10;;
11086;SDS011;5597;47.588;9.642;2023-05-07T15:22:31;2.90;;;2.20;;